sensor_id;sensor_type;location;lat;lon;timestamp;P1;durP1;ratioP1;P2;durP2;ratioP2
69188;SDS011;56302;52.322;5.926;2022-12-18T00:02:12;55.08;;;19.00;;
69188;SDS011;56302;52.322;5.926;2022-12-18T00:04:38;58.53;;;19.30;;
69188;SDS011;56302;52.322;5.926;2022-12-18T00:07:03;65.20;;;20.47;;
69188;SDS011;56302;52.322;5.926;2022-12-18T00:09:29;61.88;;;20.83;;
69188;SDS011;56302;52.322;5.926;2022-12-18T00:11:54;57.10;;;19.33;;
69188;SDS011;56302;52.322;5.926;2022-12-18T00:14:20;61.60;;;19.47;;
69188;SDS011;56302;52.322;5.926;2022-12-18T00:16:45;61.58;;;19.42;;
69188;SDS011;56302;52.322;5.926;2022-12-18T00:19:11;61.00;;;20.03;;
69188;SDS011;56302;52.322;5.926;2022-12-18T00:21:38;59.47;;;19.23;;
69188;SDS011;56302;52.322;5.926;2022-12-18T00:24:04;57.57;;;19.47;;
69188;SDS011;56302;52.322;5.926;2022-12-18T00:26:31;56.22;;;20.42;;
69188;SDS011;56302;52.322;5.926;2022-12-18T00:28:58;56.30;;;18.63;;
69188;SDS011;56302;52.322;5.926;2022-12-18T00:31:25;56.00;;;19.53;;
69188;SDS011;56302;52.322;5.926;2022-12-18T00:33:52;59.92;;;19.13;;
69188;SDS011;56302;52.322;5.926;2022-12-18T00:36:20;54.10;;;18.75;;
69188;SDS011;56302;52.322;5.926;2022-12-18T00:38:50;54.03;;;19.23;;
69188;SDS011;56302;52.322;5.926;2022-12-18T00:41:18;59.75;;;19.08;;
69188;SDS011;56302;52.322;5.926;2022-12-18T00:44:02;53.75;;;19.55;;
69188;SDS011;56302;52.322;5.926;2022-12-18T00:46:28;62.25;;;19.85;;
69188;SDS011;56302;52.322;5.926;2022-12-18T00:48:54;56.97;;;18.63;;
69188;SDS011;56302;52.322;5.926;2022-12-18T00:51:20;52.92;;;17.65;;
69188;SDS011;56302;52.322;5.926;2022-12-18T00:53:45;59.43;;;20.13;;
69188;SDS011;56302;52.322;5.926;2022-12-18T00:56:11;59.47;;;19.47;;
69188;SDS011;56302;52.322;5.926;2022-12-18T00:58:36;55.42;;;19.00;;
69188;SDS011;56302;52.322;5.926;2022-12-18T01:01:05;57.17;;;19.63;;
69188;SDS011;56302;52.322;5.926;2022-12-18T01:03:31;69.57;;;21.02;;
69188;SDS011;56302;52.322;5.926;2022-12-18T01:05:57;57.00;;;18.47;;
69188;SDS011;56302;52.322;5.926;2022-12-18T01:08:22;67.50;;;21.73;;
69188;SDS011;56302;52.322;5.926;2022-12-18T01:10:48;53.67;;;19.10;;
69188;SDS011;56302;52.322;5.926;2022-12-18T01:13:13;53.63;;;19.43;;
69188;SDS011;56302;52.322;5.926;2022-12-18T01:15:39;55.60;;;18.95;;
69188;SDS011;56302;52.322;5.926;2022-12-18T01:18:05;72.77;;;20.97;;
69188;SDS011;56302;52.322;5.926;2022-12-18T01:20:31;50.70;;;17.63;;
69188;SDS011;56302;52.322;5.926;2022-12-18T01:22:57;54.67;;;18.00;;
69188;SDS011;56302;52.322;5.926;2022-12-18T01:25:23;58.28;;;19.10;;
69188;SDS011;56302;52.322;5.926;2022-12-18T01:27:48;51.77;;;18.43;;
69188;SDS011;56302;52.322;5.926;2022-12-18T01:30:14;54.73;;;19.00;;
69188;SDS011;56302;52.322;5.926;2022-12-18T01:32:39;51.83;;;17.25;;
69188;SDS011;56302;52.322;5.926;2022-12-18T01:35:05;56.93;;;20.13;;
69188;SDS011;56302;52.322;5.926;2022-12-18T01:37:31;57.90;;;19.33;;
69188;SDS011;56302;52.322;5.926;2022-12-18T01:39:57;57.60;;;20.30;;
69188;SDS011;56302;52.322;5.926;2022-12-18T01:42:22;53.65;;;18.33;;
69188;SDS011;56302;52.322;5.926;2022-12-18T01:47:41;59.42;;;19.15;;
69188;SDS011;56302;52.322;5.926;2022-12-18T01:50:19;52.20;;;18.52;;
69188;SDS011;56302;52.322;5.926;2022-12-18T01:52:51;54.37;;;18.67;;
69188;SDS011;56302;52.322;5.926;2022-12-18T01:55:22;56.53;;;17.35;;
69188;SDS011;56302;52.322;5.926;2022-12-18T01:57:54;51.70;;;18.67;;
69188;SDS011;56302;52.322;5.926;2022-12-18T02:00:22;51.67;;;18.45;;
69188;SDS011;56302;52.322;5.926;2022-12-18T02:02:49;51.28;;;18.00;;
69188;SDS011;56302;52.322;5.926;2022-12-18T02:05:16;52.23;;;17.43;;
69188;SDS011;56302;52.322;5.926;2022-12-18T02:07:51;46.50;;;17.88;;
69188;SDS011;56302;52.322;5.926;2022-12-18T02:11:05;46.25;;;16.48;;
69188;SDS011;56302;52.322;5.926;2022-12-18T02:14:17;50.85;;;16.77;;
69188;SDS011;56302;52.322;5.926;2022-12-18T02:17:02;55.47;;;17.93;;
69188;SDS011;56302;52.322;5.926;2022-12-18T02:22:27;45.72;;;16.45;;
69188;SDS011;56302;52.322;5.926;2022-12-18T02:27:40;46.08;;;17.17;;
69188;SDS011;56302;52.322;5.926;2022-12-18T02:30:09;44.00;;;16.13;;
69188;SDS011;56302;52.322;5.926;2022-12-18T02:32:39;47.20;;;16.55;;
69188;SDS011;56302;52.322;5.926;2022-12-18T02:35:08;42.70;;;15.75;;
69188;SDS011;56302;52.322;5.926;2022-12-18T02:37:37;47.05;;;16.10;;
69188;SDS011;56302;52.322;5.926;2022-12-18T02:40:06;48.33;;;16.58;;
69188;SDS011;56302;52.322;5.926;2022-12-18T02:42:33;49.53;;;17.23;;
69188;SDS011;56302;52.322;5.926;2022-12-18T02:44:59;48.03;;;17.30;;
69188;SDS011;56302;52.322;5.926;2022-12-18T02:47:27;42.33;;;15.90;;
69188;SDS011;56302;52.322;5.926;2022-12-18T02:50:08;47.75;;;16.55;;
69188;SDS011;56302;52.322;5.926;2022-12-18T02:53:12;44.38;;;16.17;;
69188;SDS011;56302;52.322;5.926;2022-12-18T02:56:15;42.50;;;15.23;;
69188;SDS011;56302;52.322;5.926;2022-12-18T03:01:36;42.22;;;15.70;;
69188;SDS011;56302;52.322;5.926;2022-12-18T03:04:14;44.08;;;15.15;;
69188;SDS011;56302;52.322;5.926;2022-12-18T03:06:51;46.38;;;16.38;;
69188;SDS011;56302;52.322;5.926;2022-12-18T03:09:28;46.83;;;16.20;;
69188;SDS011;56302;52.322;5.926;2022-12-18T03:12:03;44.10;;;15.70;;
69188;SDS011;56302;52.322;5.926;2022-12-18T03:14:59;45.60;;;15.25;;
69188;SDS011;56302;52.322;5.926;2022-12-18T03:17:30;45.50;;;15.30;;
69188;SDS011;56302;52.322;5.926;2022-12-18T03:19:58;44.67;;;16.08;;
69188;SDS011;56302;52.322;5.926;2022-12-18T03:22:30;50.40;;;15.80;;
69188;SDS011;56302;52.322;5.926;2022-12-18T03:24:58;44.50;;;15.85;;
69188;SDS011;56302;52.322;5.926;2022-12-18T03:27:27;46.92;;;15.93;;
69188;SDS011;56302;52.322;5.926;2022-12-18T03:29:57;45.40;;;14.93;;
69188;SDS011;56302;52.322;5.926;2022-12-18T03:35:30;37.10;;;14.53;;
69188;SDS011;56302;52.322;5.926;2022-12-18T03:37:59;38.15;;;15.02;;
69188;SDS011;56302;52.322;5.926;2022-12-18T03:40:27;43.17;;;14.77;;
69188;SDS011;56302;52.322;5.926;2022-12-18T03:43:42;47.03;;;14.67;;
69188;SDS011;56302;52.322;5.926;2022-12-18T03:46:06;41.15;;;14.52;;
69188;SDS011;56302;52.322;5.926;2022-12-18T03:48:44;38.88;;;15.40;;
69188;SDS011;56302;52.322;5.926;2022-12-18T03:51:18;43.65;;;16.05;;
69188;SDS011;56302;52.322;5.926;2022-12-18T03:54:02;44.72;;;15.32;;
69188;SDS011;56302;52.322;5.926;2022-12-18T03:56:31;39.67;;;14.40;;
69188;SDS011;56302;52.322;5.926;2022-12-18T03:59:00;49.10;;;16.85;;
69188;SDS011;56302;52.322;5.926;2022-12-18T04:01:30;43.58;;;15.85;;
69188;SDS011;56302;52.322;5.926;2022-12-18T04:03:59;42.15;;;15.70;;
69188;SDS011;56302;52.322;5.926;2022-12-18T04:06:26;44.75;;;15.32;;
69188;SDS011;56302;52.322;5.926;2022-12-18T04:08:54;43.20;;;15.50;;
69188;SDS011;56302;52.322;5.926;2022-12-18T04:11:20;37.60;;;13.80;;
69188;SDS011;56302;52.322;5.926;2022-12-18T04:13:45;40.63;;;14.57;;
69188;SDS011;56302;52.322;5.926;2022-12-18T04:16:11;38.67;;;15.80;;
69188;SDS011;56302;52.322;5.926;2022-12-18T04:18:36;40.10;;;14.35;;
69188;SDS011;56302;52.322;5.926;2022-12-18T04:21:02;43.77;;;15.83;;
69188;SDS011;56302;52.322;5.926;2022-12-18T04:23:27;44.13;;;16.23;;
69188;SDS011;56302;52.322;5.926;2022-12-18T04:25:53;40.78;;;14.43;;
69188;SDS011;56302;52.322;5.926;2022-12-18T04:28:19;47.33;;;15.83;;
69188;SDS011;56302;52.322;5.926;2022-12-18T04:30:44;38.42;;;14.80;;
69188;SDS011;56302;52.322;5.926;2022-12-18T04:33:11;40.97;;;14.82;;
69188;SDS011;56302;52.322;5.926;2022-12-18T04:35:37;38.47;;;13.63;;
69188;SDS011;56302;52.322;5.926;2022-12-18T04:38:05;37.13;;;14.77;;
69188;SDS011;56302;52.322;5.926;2022-12-18T04:40:35;39.25;;;15.13;;
69188;SDS011;56302;52.322;5.926;2022-12-18T04:43:01;34.63;;;14.23;;
69188;SDS011;56302;52.322;5.926;2022-12-18T04:45:26;40.60;;;14.27;;
69188;SDS011;56302;52.322;5.926;2022-12-18T04:47:52;36.20;;;13.95;;
69188;SDS011;56302;52.322;5.926;2022-12-18T04:50:17;37.37;;;14.67;;
69188;SDS011;56302;52.322;5.926;2022-12-18T04:52:43;39.50;;;14.77;;
69188;SDS011;56302;52.322;5.926;2022-12-18T04:55:08;44.35;;;14.30;;
69188;SDS011;56302;52.322;5.926;2022-12-18T04:57:34;42.58;;;15.68;;
69188;SDS011;56302;52.322;5.926;2022-12-18T04:59:59;44.20;;;15.53;;
69188;SDS011;56302;52.322;5.926;2022-12-18T05:02:25;35.67;;;13.90;;
69188;SDS011;56302;52.322;5.926;2022-12-18T05:04:50;42.75;;;15.63;;
69188;SDS011;56302;52.322;5.926;2022-12-18T05:07:16;40.63;;;14.27;;
69188;SDS011;56302;52.322;5.926;2022-12-18T05:09:41;40.87;;;14.20;;
69188;SDS011;56302;52.322;5.926;2022-12-18T05:12:07;35.35;;;13.68;;
69188;SDS011;56302;52.322;5.926;2022-12-18T05:14:32;34.60;;;13.80;;
69188;SDS011;56302;52.322;5.926;2022-12-18T05:16:58;46.33;;;14.37;;
69188;SDS011;56302;52.322;5.926;2022-12-18T05:19:23;33.17;;;12.90;;
69188;SDS011;56302;52.322;5.926;2022-12-18T05:21:49;31.98;;;13.23;;
69188;SDS011;56302;52.322;5.926;2022-12-18T05:24:14;36.37;;;13.37;;
69188;SDS011;56302;52.322;5.926;2022-12-18T05:26:40;36.37;;;12.93;;
69188;SDS011;56302;52.322;5.926;2022-12-18T05:29:05;35.77;;;14.63;;
69188;SDS011;56302;52.322;5.926;2022-12-18T05:31:31;35.40;;;12.93;;
69188;SDS011;56302;52.322;5.926;2022-12-18T05:33:57;32.47;;;13.27;;
69188;SDS011;56302;52.322;5.926;2022-12-18T05:36:23;37.00;;;13.35;;
69188;SDS011;56302;52.322;5.926;2022-12-18T05:38:48;39.47;;;11.87;;
69188;SDS011;56302;52.322;5.926;2022-12-18T05:41:14;34.53;;;13.02;;
69188;SDS011;56302;52.322;5.926;2022-12-18T05:43:40;30.77;;;11.67;;
69188;SDS011;56302;52.322;5.926;2022-12-18T05:46:06;31.53;;;12.30;;
69188;SDS011;56302;52.322;5.926;2022-12-18T05:48:34;32.10;;;10.70;;
69188;SDS011;56302;52.322;5.926;2022-12-18T05:51:06;32.83;;;12.73;;
69188;SDS011;56302;52.322;5.926;2022-12-18T05:53:33;30.93;;;12.30;;
69188;SDS011;56302;52.322;5.926;2022-12-18T05:56:04;33.58;;;12.18;;
69188;SDS011;56302;52.322;5.926;2022-12-18T05:58:31;31.90;;;12.50;;
69188;SDS011;56302;52.322;5.926;2022-12-18T06:00:57;41.95;;;13.05;;
69188;SDS011;56302;52.322;5.926;2022-12-18T06:03:30;32.88;;;12.23;;
69188;SDS011;56302;52.322;5.926;2022-12-18T06:05:55;36.23;;;13.20;;
69188;SDS011;56302;52.322;5.926;2022-12-18T06:08:21;36.20;;;12.23;;
69188;SDS011;56302;52.322;5.926;2022-12-18T06:10:49;32.13;;;12.67;;
69188;SDS011;56302;52.322;5.926;2022-12-18T06:13:17;36.78;;;14.27;;
69188;SDS011;56302;52.322;5.926;2022-12-18T06:15:42;33.65;;;12.98;;
69188;SDS011;56302;52.322;5.926;2022-12-18T06:18:08;33.00;;;12.77;;
69188;SDS011;56302;52.322;5.926;2022-12-18T06:20:33;34.50;;;13.40;;
69188;SDS011;56302;52.322;5.926;2022-12-18T06:23:01;30.75;;;12.00;;
69188;SDS011;56302;52.322;5.926;2022-12-18T06:25:27;34.72;;;11.82;;
69188;SDS011;56302;52.322;5.926;2022-12-18T06:27:52;34.53;;;12.63;;
69188;SDS011;56302;52.322;5.926;2022-12-18T06:30:19;33.93;;;12.73;;
69188;SDS011;56302;52.322;5.926;2022-12-18T06:32:45;30.08;;;12.55;;
69188;SDS011;56302;52.322;5.926;2022-12-18T06:35:10;32.43;;;12.30;;
69188;SDS011;56302;52.322;5.926;2022-12-18T06:37:36;27.27;;;11.95;;
69188;SDS011;56302;52.322;5.926;2022-12-18T06:40:01;31.07;;;12.13;;
69188;SDS011;56302;52.322;5.926;2022-12-18T06:42:28;31.57;;;11.77;;
69188;SDS011;56302;52.322;5.926;2022-12-18T06:44:53;33.30;;;12.23;;
69188;SDS011;56302;52.322;5.926;2022-12-18T06:47:19;30.17;;;12.48;;
69188;SDS011;56302;52.322;5.926;2022-12-18T06:49:44;28.13;;;11.90;;
69188;SDS011;56302;52.322;5.926;2022-12-18T06:52:10;26.23;;;11.13;;
69188;SDS011;56302;52.322;5.926;2022-12-18T06:54:35;27.03;;;11.57;;
69188;SDS011;56302;52.322;5.926;2022-12-18T06:57:01;29.67;;;12.18;;
69188;SDS011;56302;52.322;5.926;2022-12-18T06:59:26;28.13;;;11.67;;
69188;SDS011;56302;52.322;5.926;2022-12-18T07:01:52;30.90;;;11.63;;
69188;SDS011;56302;52.322;5.926;2022-12-18T07:04:18;24.83;;;12.27;;
69188;SDS011;56302;52.322;5.926;2022-12-18T07:06:43;27.97;;;11.63;;
69188;SDS011;56302;52.322;5.926;2022-12-18T07:09:09;22.73;;;10.73;;
69188;SDS011;56302;52.322;5.926;2022-12-18T07:11:34;33.08;;;12.30;;
69188;SDS011;56302;52.322;5.926;2022-12-18T07:14:00;30.75;;;12.25;;
69188;SDS011;56302;52.322;5.926;2022-12-18T07:16:26;28.25;;;10.95;;
69188;SDS011;56302;52.322;5.926;2022-12-18T07:18:54;30.75;;;11.57;;
69188;SDS011;56302;52.322;5.926;2022-12-18T07:21:20;32.75;;;11.75;;
69188;SDS011;56302;52.322;5.926;2022-12-18T07:23:46;29.02;;;12.20;;
69188;SDS011;56302;52.322;5.926;2022-12-18T07:26:12;29.63;;;11.60;;
69188;SDS011;56302;52.322;5.926;2022-12-18T07:28:39;27.43;;;10.90;;
69188;SDS011;56302;52.322;5.926;2022-12-18T07:31:06;25.80;;;11.55;;
69188;SDS011;56302;52.322;5.926;2022-12-18T07:33:33;29.58;;;12.32;;
69188;SDS011;56302;52.322;5.926;2022-12-18T07:36:03;29.02;;;10.55;;
69188;SDS011;56302;52.322;5.926;2022-12-18T07:38:30;27.30;;;11.67;;
69188;SDS011;56302;52.322;5.926;2022-12-18T07:41:03;28.00;;;11.80;;
69188;SDS011;56302;52.322;5.926;2022-12-18T07:43:30;27.08;;;11.13;;
69188;SDS011;56302;52.322;5.926;2022-12-18T07:45:55;26.33;;;11.53;;
69188;SDS011;56302;52.322;5.926;2022-12-18T07:48:21;24.63;;;11.10;;
69188;SDS011;56302;52.322;5.926;2022-12-18T07:50:46;30.17;;;11.13;;
69188;SDS011;56302;52.322;5.926;2022-12-18T07:53:12;30.30;;;11.93;;
69188;SDS011;56302;52.322;5.926;2022-12-18T07:55:39;24.10;;;10.40;;
69188;SDS011;56302;52.322;5.926;2022-12-18T07:58:06;27.02;;;10.80;;
69188;SDS011;56302;52.322;5.926;2022-12-18T08:00:31;24.77;;;9.90;;
69188;SDS011;56302;52.322;5.926;2022-12-18T08:02:57;30.30;;;11.97;;
69188;SDS011;56302;52.322;5.926;2022-12-18T08:05:23;25.70;;;10.53;;
69188;SDS011;56302;52.322;5.926;2022-12-18T08:07:48;20.38;;;8.25;;
69188;SDS011;56302;52.322;5.926;2022-12-18T08:10:14;27.60;;;9.50;;
69188;SDS011;56302;52.322;5.926;2022-12-18T08:12:40;22.38;;;9.50;;
69188;SDS011;56302;52.322;5.926;2022-12-18T08:15:05;23.80;;;8.27;;
69188;SDS011;56302;52.322;5.926;2022-12-18T08:17:32;17.17;;;8.23;;
69188;SDS011;56302;52.322;5.926;2022-12-18T08:19:57;27.20;;;10.40;;
69188;SDS011;56302;52.322;5.926;2022-12-18T08:22:23;16.97;;;8.33;;
69188;SDS011;56302;52.322;5.926;2022-12-18T08:24:48;17.73;;;6.90;;
69188;SDS011;56302;52.322;5.926;2022-12-18T08:27:14;20.30;;;9.30;;
69188;SDS011;56302;52.322;5.926;2022-12-18T08:29:39;17.87;;;7.77;;
69188;SDS011;56302;52.322;5.926;2022-12-18T08:32:05;21.92;;;8.77;;
69188;SDS011;56302;52.322;5.926;2022-12-18T08:34:30;18.57;;;7.40;;
69188;SDS011;56302;52.322;5.926;2022-12-18T08:36:56;16.40;;;7.17;;
69188;SDS011;56302;52.322;5.926;2022-12-18T08:39:21;21.35;;;9.45;;
69188;SDS011;56302;52.322;5.926;2022-12-18T08:41:47;18.70;;;8.03;;
69188;SDS011;56302;52.322;5.926;2022-12-18T08:44:33;24.38;;;9.20;;
69188;SDS011;56302;52.322;5.926;2022-12-18T08:47:04;19.48;;;8.35;;
69188;SDS011;56302;52.322;5.926;2022-12-18T08:49:31;23.50;;;9.37;;
69188;SDS011;56302;52.322;5.926;2022-12-18T08:51:57;21.70;;;7.60;;
69188;SDS011;56302;52.322;5.926;2022-12-18T08:54:23;18.23;;;7.43;;
69188;SDS011;56302;52.322;5.926;2022-12-18T08:56:49;26.50;;;9.68;;
69188;SDS011;56302;52.322;5.926;2022-12-18T08:59:15;23.48;;;9.70;;
69188;SDS011;56302;52.322;5.926;2022-12-18T09:01:44;24.17;;;10.75;;
69188;SDS011;56302;52.322;5.926;2022-12-18T09:04:10;24.40;;;10.15;;
69188;SDS011;56302;52.322;5.926;2022-12-18T09:06:36;21.45;;;9.27;;
69188;SDS011;56302;52.322;5.926;2022-12-18T09:09:03;20.35;;;8.15;;
69188;SDS011;56302;52.322;5.926;2022-12-18T09:11:29;25.20;;;8.80;;
69188;SDS011;56302;52.322;5.926;2022-12-18T09:13:56;26.45;;;9.82;;
69188;SDS011;56302;52.322;5.926;2022-12-18T09:16:24;23.58;;;10.13;;
69188;SDS011;56302;52.322;5.926;2022-12-18T09:18:50;23.75;;;10.15;;
69188;SDS011;56302;52.322;5.926;2022-12-18T09:21:18;20.85;;;8.80;;
69188;SDS011;56302;52.322;5.926;2022-12-18T09:23:51;16.23;;;7.80;;
69188;SDS011;56302;52.322;5.926;2022-12-18T09:26:18;20.60;;;7.47;;
69188;SDS011;56302;52.322;5.926;2022-12-18T09:28:45;22.55;;;8.40;;
69188;SDS011;56302;52.322;5.926;2022-12-18T09:31:11;19.60;;;9.32;;
69188;SDS011;56302;52.322;5.926;2022-12-18T09:33:41;21.53;;;7.43;;
69188;SDS011;56302;52.322;5.926;2022-12-18T09:36:07;21.88;;;9.73;;
69188;SDS011;56302;52.322;5.926;2022-12-18T09:38:35;19.85;;;8.70;;
69188;SDS011;56302;52.322;5.926;2022-12-18T09:41:47;17.17;;;8.23;;
69188;SDS011;56302;52.322;5.926;2022-12-18T09:44:44;21.77;;;8.80;;
69188;SDS011;56302;52.322;5.926;2022-12-18T09:47:25;24.63;;;9.90;;
69188;SDS011;56302;52.322;5.926;2022-12-18T09:49:58;21.60;;;9.10;;
69188;SDS011;56302;52.322;5.926;2022-12-18T09:52:29;18.08;;;8.07;;
69188;SDS011;56302;52.322;5.926;2022-12-18T09:55:10;18.50;;;7.85;;
69188;SDS011;56302;52.322;5.926;2022-12-18T09:57:45;19.80;;;8.45;;
69188;SDS011;56302;52.322;5.926;2022-12-18T10:00:19;19.15;;;8.27;;
69188;SDS011;56302;52.322;5.926;2022-12-18T10:02:51;23.77;;;9.30;;
69188;SDS011;56302;52.322;5.926;2022-12-18T10:05:30;22.75;;;8.85;;
69188;SDS011;56302;52.322;5.926;2022-12-18T10:10:42;21.13;;;8.80;;
69188;SDS011;56302;52.322;5.926;2022-12-18T10:13:15;22.20;;;7.88;;
69188;SDS011;56302;52.322;5.926;2022-12-18T10:15:54;18.48;;;7.97;;
69188;SDS011;56302;52.322;5.926;2022-12-18T10:21:32;20.00;;;8.67;;
69188;SDS011;56302;52.322;5.926;2022-12-18T10:26:42;17.13;;;7.85;;
69188;SDS011;56302;52.322;5.926;2022-12-18T10:29:12;20.83;;;7.85;;
69188;SDS011;56302;52.322;5.926;2022-12-18T10:31:39;22.45;;;8.90;;
69188;SDS011;56302;52.322;5.926;2022-12-18T10:34:09;16.20;;;7.73;;
69188;SDS011;56302;52.322;5.926;2022-12-18T10:36:35;21.92;;;9.05;;
69188;SDS011;56302;52.322;5.926;2022-12-18T10:41:47;18.35;;;7.82;;
69188;SDS011;56302;52.322;5.926;2022-12-18T10:44:23;18.27;;;8.05;;
69188;SDS011;56302;52.322;5.926;2022-12-18T10:46:53;18.23;;;7.55;;
69188;SDS011;56302;52.322;5.926;2022-12-18T10:49:31;15.70;;;6.88;;
69188;SDS011;56302;52.322;5.926;2022-12-18T10:55:02;17.08;;;7.82;;
69188;SDS011;56302;52.322;5.926;2022-12-18T10:57:30;14.77;;;7.55;;
69188;SDS011;56302;52.322;5.926;2022-12-18T11:02:46;14.10;;;6.85;;
69188;SDS011;56302;52.322;5.926;2022-12-18T11:05:28;15.43;;;7.03;;
69188;SDS011;56302;52.322;5.926;2022-12-18T11:07:56;14.90;;;7.72;;
69188;SDS011;56302;52.322;5.926;2022-12-18T11:10:41;17.13;;;7.53;;
69188;SDS011;56302;52.322;5.926;2022-12-18T11:13:21;14.50;;;5.73;;
69188;SDS011;56302;52.322;5.926;2022-12-18T11:15:49;14.27;;;6.22;;
69188;SDS011;56302;52.322;5.926;2022-12-18T11:18:16;17.40;;;7.63;;
69188;SDS011;56302;52.322;5.926;2022-12-18T11:23:33;14.45;;;6.50;;
69188;SDS011;56302;52.322;5.926;2022-12-18T11:25:59;17.60;;;6.70;;
69188;SDS011;56302;52.322;5.926;2022-12-18T11:33:58;13.60;;;6.63;;
69188;SDS011;56302;52.322;5.926;2022-12-18T11:36:25;12.98;;;6.22;;
69188;SDS011;56302;52.322;5.926;2022-12-18T11:38:56;18.23;;;6.23;;
69188;SDS011;56302;52.322;5.926;2022-12-18T11:44:40;15.27;;;6.70;;
69188;SDS011;56302;52.322;5.926;2022-12-18T11:49:53;10.98;;;5.10;;
69188;SDS011;56302;52.322;5.926;2022-12-18T11:52:26;15.20;;;6.77;;
69188;SDS011;56302;52.322;5.926;2022-12-18T12:01:00;12.48;;;6.28;;
69188;SDS011;56302;52.322;5.926;2022-12-18T12:06:26;17.10;;;6.67;;
69188;SDS011;56302;52.322;5.926;2022-12-18T12:20:15;13.13;;;5.77;;
69188;SDS011;56302;52.322;5.926;2022-12-18T12:25:28;12.07;;;6.15;;
69188;SDS011;56302;52.322;5.926;2022-12-18T12:28:14;14.10;;;6.30;;
69188;SDS011;56302;52.322;5.926;2022-12-18T12:36:35;15.95;;;6.20;;
69188;SDS011;56302;52.322;5.926;2022-12-18T12:39:07;12.05;;;6.13;;
69188;SDS011;56302;52.322;5.926;2022-12-18T12:41:41;17.38;;;6.47;;
69188;SDS011;56302;52.322;5.926;2022-12-18T12:44:29;15.68;;;6.60;;
69188;SDS011;56302;52.322;5.926;2022-12-18T12:47:00;13.27;;;6.57;;
69188;SDS011;56302;52.322;5.926;2022-12-18T12:49:34;15.38;;;6.25;;
69188;SDS011;56302;52.322;5.926;2022-12-18T12:52:06;15.93;;;6.75;;
69188;SDS011;56302;52.322;5.926;2022-12-18T12:54:37;12.45;;;6.50;;
69188;SDS011;56302;52.322;5.926;2022-12-18T12:57:12;13.15;;;6.57;;
69188;SDS011;56302;52.322;5.926;2022-12-18T13:08:09;14.50;;;6.75;;
69188;SDS011;56302;52.322;5.926;2022-12-18T13:10:38;16.45;;;6.50;;
69188;SDS011;56302;52.322;5.926;2022-12-18T13:13:12;14.02;;;7.03;;
69188;SDS011;56302;52.322;5.926;2022-12-18T13:15:41;13.38;;;5.75;;
69188;SDS011;56302;52.322;5.926;2022-12-18T13:23:29;13.68;;;6.60;;
69188;SDS011;56302;52.322;5.926;2022-12-18T13:26:43;14.65;;;7.40;;
69188;SDS011;56302;52.322;5.926;2022-12-18T13:31:12;15.40;;;6.20;;
69188;SDS011;56302;52.322;5.926;2022-12-18T13:33:41;12.52;;;5.90;;
69188;SDS011;56302;52.322;5.926;2022-12-18T13:41:34;16.27;;;6.68;;
69188;SDS011;56302;52.322;5.926;2022-12-18T13:44:10;13.37;;;6.73;;
69188;SDS011;56302;52.322;5.926;2022-12-18T13:46:43;12.77;;;6.45;;
69188;SDS011;56302;52.322;5.926;2022-12-18T13:51:49;12.57;;;6.17;;
69188;SDS011;56302;52.322;5.926;2022-12-18T13:54:30;15.90;;;6.72;;
69188;SDS011;56302;52.322;5.926;2022-12-18T13:57:03;14.85;;;7.07;;
69188;SDS011;56302;52.322;5.926;2022-12-18T13:59:34;12.88;;;6.78;;
69188;SDS011;56302;52.322;5.926;2022-12-18T14:02:09;13.13;;;6.60;;
69188;SDS011;56302;52.322;5.926;2022-12-18T14:04:44;13.73;;;6.30;;
69188;SDS011;56302;52.322;5.926;2022-12-18T14:07:15;13.52;;;6.60;;
69188;SDS011;56302;52.322;5.926;2022-12-18T14:09:45;14.15;;;7.25;;
69188;SDS011;56302;52.322;5.926;2022-12-18T14:12:20;13.48;;;6.68;;
69188;SDS011;56302;52.322;5.926;2022-12-18T14:15:50;15.25;;;6.50;;
69188;SDS011;56302;52.322;5.926;2022-12-18T14:18:18;14.03;;;7.30;;
69188;SDS011;56302;52.322;5.926;2022-12-18T14:21:13;11.93;;;6.18;;
69188;SDS011;56302;52.322;5.926;2022-12-18T14:23:44;15.23;;;6.97;;
69188;SDS011;56302;52.322;5.926;2022-12-18T14:26:26;13.10;;;6.07;;
69188;SDS011;56302;52.322;5.926;2022-12-18T14:28:57;12.05;;;5.90;;
69188;SDS011;56302;52.322;5.926;2022-12-18T14:31:42;15.93;;;6.35;;
69188;SDS011;56302;52.322;5.926;2022-12-18T14:34:14;8.90;;;4.33;;
69188;SDS011;56302;52.322;5.926;2022-12-18T14:36:51;13.70;;;7.55;;
69188;SDS011;56302;52.322;5.926;2022-12-18T14:39:18;11.98;;;6.35;;
69188;SDS011;56302;52.322;5.926;2022-12-18T14:41:43;13.57;;;6.07;;
69188;SDS011;56302;52.322;5.926;2022-12-18T14:44:10;16.75;;;7.15;;
69188;SDS011;56302;52.322;5.926;2022-12-18T14:46:42;13.00;;;6.65;;
69188;SDS011;56302;52.322;5.926;2022-12-18T14:51:47;13.85;;;6.70;;
69188;SDS011;56302;52.322;5.926;2022-12-18T14:54:18;14.48;;;6.68;;
69188;SDS011;56302;52.322;5.926;2022-12-18T14:57:12;14.63;;;6.72;;
69188;SDS011;56302;52.322;5.926;2022-12-18T14:59:51;12.43;;;6.32;;
69188;SDS011;56302;52.322;5.926;2022-12-18T15:04:47;12.90;;;6.30;;
69188;SDS011;56302;52.322;5.926;2022-12-18T15:07:24;13.75;;;5.80;;
69188;SDS011;56302;52.322;5.926;2022-12-18T15:12:34;12.77;;;6.63;;
69188;SDS011;56302;52.322;5.926;2022-12-18T15:15:01;14.18;;;6.45;;
69188;SDS011;56302;52.322;5.926;2022-12-18T15:17:28;14.35;;;7.47;;
69188;SDS011;56302;52.322;5.926;2022-12-18T15:19:58;12.13;;;6.60;;
69188;SDS011;56302;52.322;5.926;2022-12-18T15:22:28;12.25;;;6.68;;
69188;SDS011;56302;52.322;5.926;2022-12-18T15:24:56;12.55;;;5.90;;
69188;SDS011;56302;52.322;5.926;2022-12-18T15:27:30;12.75;;;6.57;;
69188;SDS011;56302;52.322;5.926;2022-12-18T15:30:15;14.02;;;6.55;;
69188;SDS011;56302;52.322;5.926;2022-12-18T15:32:43;16.90;;;7.67;;
69188;SDS011;56302;52.322;5.926;2022-12-18T15:37:49;14.43;;;6.88;;
69188;SDS011;56302;52.322;5.926;2022-12-18T15:40:17;14.93;;;7.25;;
69188;SDS011;56302;52.322;5.926;2022-12-18T15:42:44;13.82;;;6.28;;
69188;SDS011;56302;52.322;5.926;2022-12-18T15:45:29;12.00;;;5.80;;
69188;SDS011;56302;52.322;5.926;2022-12-18T15:47:55;17.73;;;7.35;;
69188;SDS011;56302;52.322;5.926;2022-12-18T15:50:20;14.57;;;6.60;;
69188;SDS011;56302;52.322;5.926;2022-12-18T15:52:47;12.85;;;7.20;;
69188;SDS011;56302;52.322;5.926;2022-12-18T15:55:21;15.85;;;6.70;;
69188;SDS011;56302;52.322;5.926;2022-12-18T15:58:07;15.73;;;7.45;;
69188;SDS011;56302;52.322;5.926;2022-12-18T16:00:34;15.30;;;7.10;;
69188;SDS011;56302;52.322;5.926;2022-12-18T16:03:01;14.63;;;7.45;;
69188;SDS011;56302;52.322;5.926;2022-12-18T16:05:27;15.23;;;7.60;;
69188;SDS011;56302;52.322;5.926;2022-12-18T16:07:53;14.82;;;7.68;;
69188;SDS011;56302;52.322;5.926;2022-12-18T16:10:19;16.10;;;8.00;;
69188;SDS011;56302;52.322;5.926;2022-12-18T16:12:44;18.65;;;8.50;;
69188;SDS011;56302;52.322;5.926;2022-12-18T16:15:12;15.67;;;8.23;;
69188;SDS011;56302;52.322;5.926;2022-12-18T16:17:42;15.07;;;7.43;;
69188;SDS011;56302;52.322;5.926;2022-12-18T16:20:12;13.93;;;7.28;;
69188;SDS011;56302;52.322;5.926;2022-12-18T16:22:42;15.93;;;7.40;;
69188;SDS011;56302;52.322;5.926;2022-12-18T16:25:16;16.77;;;8.00;;
69188;SDS011;56302;52.322;5.926;2022-12-18T16:27:45;16.10;;;7.70;;
69188;SDS011;56302;52.322;5.926;2022-12-18T16:30:12;13.63;;;7.05;;
69188;SDS011;56302;52.322;5.926;2022-12-18T16:32:39;15.57;;;7.93;;
69188;SDS011;56302;52.322;5.926;2022-12-18T16:35:05;16.90;;;7.80;;